Time;durP1;ratioP1;P1;durP2;ratioP2;P2;SDS_P1;SDS_P2;PMS_P1;PMS_P2;Temp;Humidity;BMP_temperature;BMP_pressure;BME280_temperature;BME280_humidity;BME280_pressure;Samples;Min_cycle;Max_cycle;Signal;HPM_P1;HPM_P2
2023/06/30 00:00:57;;;;;;;0.80;0.80;;;;;;;17.26;100.00;97425.00;1710621;75;686602;-73
2023/06/30 00:03:27;;;;;;;1.00;0.90;;;;;;;17.52;98.56;97427.09;1702223;75;741809;-72
2023/06/30 00:05:57;;;;;;;1.20;0.80;;;;;;;17.22;100.00;97428.09;1710118;75;681156;-71
2023/06/30 00:08:32;;;;;;;1.15;0.80;;;;;;;17.45;96.45;97427.72;1700865;75;753334;-74
2023/06/30 00:11:02;;;;;;;1.00;0.80;;;;;;;17.19;99.63;97428.38;1709992;75;688856;-70
2023/06/30 00:13:32;;;;;;;0.60;0.60;;;;;;;16.95;100.00;97429.22;1701186;75;773910;-71
2023/06/30 00:16:02;;;;;;;0.80;0.80;;;;;;;16.94;100.00;97428.50;1710921;75;669508;-75
2023/06/30 00:18:33;;;;;;;0.90;0.70;;;;;;;16.91;100.00;97429.53;1702223;75;752238;-72
2023/06/30 00:21:04;;;;;;;0.90;0.90;;;;;;;16.81;100.00;97417.34;1711796;75;681038;-70
2023/06/30 00:23:36;;;;;;;1.00;0.90;;;;;;;16.76;100.00;97427.22;1702200;75;755582;-70
2023/06/30 00:26:06;;;;;;;0.90;0.90;;;;;;;16.74;100.00;97420.69;1711554;75;676120;-73
2023/06/30 00:28:37;;;;;;;1.25;0.90;;;;;;;16.57;100.00;97421.69;1702405;75;741732;-73
2023/06/30 00:31:07;;;;;;;1.10;1.00;;;;;;;16.61;100.00;97422.13;1711066;75;674734;-72
2023/06/30 00:33:38;;;;;;;1.30;1.10;;;;;;;16.89;100.00;97409.97;1702421;75;733958;-71
2023/06/30 00:36:08;;;;;;;1.55;0.95;;;;;;;16.79;100.00;97409.59;1710980;75;673181;-74
2023/06/30 00:38:41;;;;;;;1.40;1.30;;;;;;;16.53;100.00;97412.19;1701478;75;743469;-72
2023/06/30 00:41:11;;;;;;;1.70;1.00;;;;;;;16.47;100.00;97414.28;1710178;75;676685;-72
2023/06/30 00:43:42;;;;;;;1.50;1.00;;;;;;;16.54;100.00;97406.13;1701785;75;736369;-72
2023/06/30 00:46:19;;;;;;;1.10;1.00;;;;;;;16.64;100.00;97405.75;1710615;75;688663;-73
2023/06/30 00:48:49;;;;;;;1.75;1.00;;;;;;;16.44;100.00;97405.00;1701832;75;764028;-71
2023/06/30 00:51:19;;;;;;;1.20;1.00;;;;;;;16.86;100.00;97405.50;1710746;75;681988;-72
2023/06/30 00:53:52;;;;;;;1.30;1.10;;;;;;;16.44;100.00;97399.47;1701327;75;751746;-70
2023/06/30 00:56:22;;;;;;;1.10;1.00;;;;;;;16.62;100.00;97400.78;1710620;75;683179;-69
2023/06/30 00:58:53;;;;;;;1.10;0.90;;;;;;;16.50;100.00;97400.16;1701526;75;753524;-73
2023/06/30 01:01:34;;;;;;;1.10;1.00;;;;;;;16.51;100.00;97395.38;1710764;75;677392;-74
2023/06/30 01:04:15;;;;;;;0.70;0.70;;;;;;;16.41;100.00;97389.47;1701754;75;756211;-71
2023/06/30 01:06:58;;;;;;;1.50;0.85;;;;;;;16.37;100.00;97383.50;1702057;75;672973;-71
2023/06/30 01:09:39;;;;;;;0.70;0.70;;;;;;;16.41;100.00;97389.47;1710537;75;676311;-74
2023/06/30 01:12:10;;;;;;;1.30;0.90;;;;;;;16.77;100.00;97386.50;1701643;75;753343;-73
2023/06/30 01:14:41;;;;;;;0.80;0.80;;;;;;;16.95;100.00;97391.25;1707086;75;974799;-72
2023/06/30 01:17:12;;;;;;;1.25;0.90;;;;;;;16.68;100.00;97384.09;1701281;75;754484;-73
2023/06/30 01:19:44;;;;;;;1.20;0.90;;;;;;;16.67;100.00;97377.84;1709870;75;670382;-72
2023/06/30 01:22:27;;;;;;;1.65;1.05;;;;;;;16.73;100.00;97380.50;1701399;75;757627;-70
2023/06/30 01:25:10;;;;;;;1.10;0.90;;;;;;;16.38;100.00;97382.25;1702736;75;679496;-70
2023/06/30 01:27:41;;;;;;;1.30;1.10;;;;;;;16.10;100.00;97382.56;1710296;75;675996;-72
2023/06/30 01:30:13;;;;;;;0.80;0.80;;;;;;;16.20;100.00;97378.19;1702199;75;671098;-71
2023/06/30 01:32:45;;;;;;;1.20;0.90;;;;;;;16.14;100.00;97383.78;1710574;75;676341;-73
2023/06/30 01:35:15;;;;;;;1.10;1.00;;;;;;;16.00;100.00;97384.22;1701402;75;745890;-71
2023/06/30 01:37:46;;;;;;;1.30;0.80;;;;;;;15.97;100.00;97389.50;1710770;75;670617;-71
2023/06/30 01:40:20;;;;;;;1.20;1.10;;;;;;;15.90;100.00;97381.06;1701607;75;756696;-71
2023/06/30 01:42:54;;;;;;;0.90;0.90;;;;;;;16.01;100.00;97389.19;1710120;75;705842;-72
2023/06/30 01:45:25;;;;;;;1.20;1.10;;;;;;;15.80;100.00;97394.44;1701897;75;731935;-72
2023/06/30 01:47:56;;;;;;;1.50;1.20;;;;;;;15.88;100.00;97400.16;1710719;75;675476;-71
2023/06/30 01:50:29;;;;;;;1.30;1.10;;;;;;;15.91;100.00;97386.03;1701559;75;754551;-74
2023/06/30 01:52:59;;;;;;;1.60;1.30;;;;;;;15.75;100.00;97379.44;1707032;75;960662;-71
2023/06/30 01:55:33;;;;;;;1.30;1.15;;;;;;;15.75;100.00;97390.50;1701365;75;753681;-71
2023/06/30 01:58:03;;;;;;;3.50;1.30;;;;;;;15.49;100.00;97387.44;1710158;75;678003;-74
2023/06/30 02:00:33;;;;;;;3.25;1.20;;;;;;;15.63;100.00;97389.06;1701517;75;754227;-75
2023/06/30 02:03:03;;;;;;;1.80;1.40;;;;;;;15.68;100.00;97381.97;1710454;75;678454;-73
2023/06/30 02:05:33;;;;;;;1.30;1.10;;;;;;;15.68;100.00;97377.22;1701209;75;752170;-74
2023/06/30 02:08:04;;;;;;;1.20;0.90;;;;;;;15.80;100.00;97382.66;1710309;75;685605;-75
2023/06/30 02:10:37;;;;;;;1.75;1.15;;;;;;;15.80;100.00;97379.88;1701645;75;747458;-71
2023/06/30 02:13:07;;;;;;;1.50;1.10;;;;;;;15.70;100.00;97382.25;1710583;75;670340;-71
2023/06/30 02:15:37;;;;;;;1.55;1.20;;;;;;;15.55;100.00;97388.88;1700893;75;756759;-73
2023/06/30 02:18:07;;;;;;;1.50;1.25;;;;;;;15.39;100.00;97394.53;1710663;75;675979;-70
2023/06/30 02:20:38;;;;;;;1.40;1.05;;;;;;;15.41;100.00;97383.75;1701571;75;749706;-73
2023/06/30 02:23:08;;;;;;;1.20;1.10;;;;;;;15.31;100.00;97386.09;1709923;75;678115;-70
2023/06/30 02:25:42;;;;;;;1.35;1.15;;;;;;;15.45;100.00;97378.72;1701438;75;746311;-71
2023/06/30 02:28:12;;;;;;;0.90;0.90;;;;;;;15.38;100.00;97379.28;1710792;75;674215;-71
2023/06/30 02:30:45;;;;;;;1.20;1.00;;;;;;;15.43;100.00;97384.72;1701647;75;747519;-73
2023/06/30 02:33:15;;;;;;;1.25;1.00;;;;;;;15.32;100.00;97382.81;1710049;75;673336;-71
2023/06/30 02:35:46;;;;;;;2.00;1.20;;;;;;;15.35;100.00;97383.81;1701761;75;729249;-71
2023/06/30 02:38:16;;;;;;;1.00;0.90;;;;;;;15.32;100.00;97380.06;1710267;75;672256;-71
2023/06/30 02:40:49;;;;;;;2.25;1.30;;;;;;;15.20;100.00;97388.94;1700931;75;747094;-72
2023/06/30 02:43:19;;;;;;;1.60;1.20;;;;;;;15.16;100.00;97380.94;1710492;75;675079;-71
2023/06/30 02:45:49;;;;;;;2.50;1.50;;;;;;;15.27;100.00;97388.38;1701246;75;748886;-72
2023/06/30 02:48:20;;;;;;;1.50;1.30;;;;;;;15.30;100.00;97382.59;1710591;75;678687;-72
2023/06/30 02:50:50;;;;;;;1.40;1.20;;;;;;;15.32;100.00;97379.31;1701211;75;745815;-72
2023/06/30 02:53:21;;;;;;;4.25;1.65;;;;;;;14.99;100.00;97369.31;1710493;75;672594;-76
2023/06/30 02:55:53;;;;;;;1.90;1.30;;;;;;;15.01;100.00;97384.06;1701491;75;741319;-72
2023/06/30 02:58:24;;;;;;;1.80;1.30;;;;;;;15.15;100.00;97382.19;1709642;75;678885;-71
2023/06/30 03:00:55;;;;;;;2.15;1.80;;;;;;;15.10;100.00;97374.72;1700747;75;755223;-72
2023/06/30 03:03:25;;;;;;;2.25;1.60;;;;;;;15.36;100.00;97368.00;1709411;75;745052;-70
2023/06/30 03:05:55;;;;;;;1.55;1.30;;;;;;;15.34;100.00;97369.28;1701426;75;765035;-72
2023/06/30 03:08:25;;;;;;;1.60;1.30;;;;;;;15.23;100.00;97371.38;1710178;75;682975;-71
2023/06/30 03:10:58;;;;;;;2.00;1.50;;;;;;;15.26;100.00;97365.56;1701902;75;720241;-74
2023/06/30 03:13:28;;;;;;;2.40;1.70;;;;;;;14.99;100.00;97361.78;1710425;75;686729;-70
2023/06/30 03:15:58;;;;;;;1.40;1.30;;;;;;;14.94;100.00;97357.06;1701396;75;755878;-73
2023/06/30 03:18:28;;;;;;;2.30;1.60;;;;;;;14.80;100.00;97363.69;1709524;75;676125;-73
2023/06/30 03:20:59;;;;;;;2.10;1.90;;;;;;;14.90;100.00;97357.31;1701858;75;752269;-69
2023/06/30 03:23:29;;;;;;;1.30;1.00;;;;;;;15.02;100.00;97348.97;1711314;75;683428;-71
2023/06/30 03:26:02;;;;;;;1.70;1.30;;;;;;;15.11;100.00;97351.41;1702105;75;744521;-72
2023/06/30 03:28:32;;;;;;;1.80;1.20;;;;;;;15.26;100.00;97351.78;1710835;75;673634;-71
2023/06/30 03:31:02;;;;;;;1.05;0.95;;;;;;;15.14;100.00;97364.16;1700542;75;811245;-73
2023/06/30 03:33:32;;;;;;;1.05;0.95;;;;;;;15.22;100.00;97356.81;1709648;75;680857;-69
2023/06/30 03:36:02;;;;;;;1.35;1.05;;;;;;;15.35;100.00;97361.75;1700706;75;752451;-70
2023/06/30 03:38:32;;;;;;;1.55;1.00;;;;;;;15.44;100.00;97352.38;1709929;75;672685;-73
2023/06/30 03:41:05;;;;;;;1.20;1.00;;;;;;;15.22;100.00;97354.06;1700375;75;756603;-74
2023/06/30 03:43:35;;;;;;;0.90;0.90;;;;;;;15.43;100.00;97350.88;1710300;75;674073;-71
2023/06/30 03:46:05;;;;;;;1.00;0.90;;;;;;;15.41;100.00;97345.13;1701387;75;759811;-72
2023/06/30 03:48:35;;;;;;;1.30;1.20;;;;;;;15.48;100.00;97353.56;1710132;75;678454;-73
2023/06/30 03:51:06;;;;;;;1.40;1.30;;;;;;;15.39;100.00;97345.63;1701609;75;755095;-74
2023/06/30 03:53:36;;;;;;;1.30;1.20;;;;;;;15.50;100.00;97342.03;1710083;75;676616;-71
2023/06/30 03:56:09;;;;;;;1.35;1.10;;;;;;;15.45;100.00;97345.59;1701478;75;737982;-71
2023/06/30 03:58:39;;;;;;;1.05;0.95;;;;;;;15.42;100.00;97344.63;1710316;75;689370;-72
2023/06/30 04:01:11;;;;;;;1.70;1.40;;;;;;;15.28;100.00;97346.50;1700909;75;740435;-74
2023/06/30 04:03:41;;;;;;;2.00;1.20;;;;;;;15.31;100.00;97337.19;1710278;75;677097;-70
2023/06/30 04:06:11;;;;;;;0.90;0.90;;;;;;;15.47;100.00;97340.31;1701526;75;741348;-72
2023/06/30 04:08:41;;;;;;;1.30;1.20;;;;;;;15.58;100.00;97337.44;1710455;75;671035;-71
2023/06/30 04:11:14;;;;;;;1.55;1.15;;;;;;;15.60;100.00;97336.94;1701442;75;753740;-70
2023/06/30 04:13:44;;;;;;;1.20;1.00;;;;;;;15.59;100.00;97336.19;1710154;75;682166;-74
2023/06/30 04:16:17;;;;;;;1.20;1.10;;;;;;;15.52;100.00;97340.25;1701282;75;762529;-73
2023/06/30 04:18:47;;;;;;;1.60;1.40;;;;;;;15.46;100.00;97341.56;1707270;75;941574;-72
2023/06/30 04:21:17;;;;;;;1.75;1.40;;;;;;;15.56;100.00;97339.97;1701893;75;747045;-72
2023/06/30 04:23:48;;;;;;;2.05;1.85;;;;;;;15.50;100.00;97337.25;1710885;75;672680;-75
2023/06/30 04:26:21;;;;;;;1.50;1.40;;;;;;;15.55;100.00;97344.72;1701353;75;746894;-70
2023/06/30 04:28:52;;;;;;;2.00;1.40;;;;;;;15.57;100.00;97332.44;1711708;75;672717;-71
2023/06/30 04:31:22;;;;;;;1.95;1.60;;;;;;;15.77;100.00;97332.72;1702807;75;747492;-74
2023/06/30 04:33:52;;;;;;;1.50;1.35;;;;;;;15.92;100.00;97331.56;1711885;75;680444;-72
2023/06/30 04:36:23;;;;;;;1.95;1.65;;;;;;;15.78;100.00;97325.22;1701971;75;736467;-69
2023/06/30 04:38:53;;;;;;;2.20;1.80;;;;;;;15.90;100.00;97321.06;1710217;75;690975;-71
2023/06/30 04:41:26;;;;;;;2.05;1.85;;;;;;;15.87;100.00;97319.31;1702172;75;739002;-73
2023/06/30 04:43:57;;;;;;;2.20;1.60;;;;;;;16.12;100.00;97319.28;1710952;75;671856;-71
2023/06/30 04:46:27;;;;;;;1.40;1.30;;;;;;;16.15;100.00;97319.00;1699464;75;870417;-72
2023/06/30 04:49:00;;;;;;;1.40;1.30;;;;;;;16.22;100.00;97311.38;1710103;75;690804;-70
2023/06/30 04:51:30;;;;;;;1.80;1.30;;;;;;;16.44;100.00;97310.31;1701933;75;754138;-73
2023/06/30 04:54:00;;;;;;;2.05;1.60;;;;;;;16.32;100.00;97321.53;1710471;75;679854;-69
2023/06/30 04:56:33;;;;;;;2.30;1.75;;;;;;;16.49;100.00;97307.47;1701236;75;748056;-69
2023/06/30 04:59:03;;;;;;;1.50;1.30;;;;;;;16.64;100.00;97303.50;1710270;75;696528;-72
2023/06/30 05:01:37;;;;;;;1.95;1.60;;;;;;;16.52;100.00;97306.41;1701847;75;757309;-75
2023/06/30 05:04:08;;;;;;;2.10;1.50;;;;;;;16.71;100.00;97306.41;1710786;75;669775;-72
2023/06/30 05:06:38;;;;;;;1.70;1.40;;;;;;;16.85;100.00;97298.19;1701813;75;743847;-75
2023/06/30 05:09:08;;;;;;;2.10;1.60;;;;;;;16.80;100.00;97311.56;1709803;75;731884;-73
2023/06/30 05:11:41;;;;;;;2.30;1.40;;;;;;;16.84;100.00;97300.22;1701022;75;746543;-74
2023/06/30 05:14:11;;;;;;;2.10;1.50;;;;;;;16.94;100.00;97290.22;1709916;75;675270;-71
2023/06/30 05:16:41;;;;;;;1.80;1.30;;;;;;;17.08;100.00;97299.31;1701538;75;754429;-71
2023/06/30 05:19:12;;;;;;;2.00;1.50;;;;;;;17.10;100.00;97302.31;1710628;75;678983;-74
2023/06/30 05:21:42;;;;;;;2.00;1.75;;;;;;;17.24;100.00;97286.44;1701725;75;750744;-70
2023/06/30 05:24:12;;;;;;;2.35;2.15;;;;;;;17.28;100.00;97294.44;1710686;75;673824;-70
2023/06/30 05:26:45;;;;;;;4.30;3.30;;;;;;;17.35;100.00;97296.59;1702057;75;736709;-73
2023/06/30 05:29:15;;;;;;;4.20;2.90;;;;;;;17.48;100.00;97290.31;1710728;75;673513;-74
2023/06/30 05:31:45;;;;;;;3.20;2.30;;;;;;;17.68;100.00;97290.41;1701395;75;757041;-72
2023/06/30 05:34:17;;;;;;;2.25;2.00;;;;;;;17.67;100.00;97297.22;1710057;75;672867;-71
2023/06/30 05:36:47;;;;;;;3.95;2.90;;;;;;;17.75;100.00;97299.34;1701834;75;757231;-75
2023/06/30 05:39:18;;;;;;;4.60;2.80;;;;;;;17.84;100.00;97287.88;1710560;75;684676;-74
2023/06/30 05:41:51;;;;;;;5.20;3.60;;;;;;;17.96;100.00;97291.16;1697939;75;924305;-74
2023/06/30 05:44:21;;;;;;;4.85;3.20;;;;;;;18.02;100.00;97289.03;1710620;75;674020;-69
2023/06/30 05:46:51;;;;;;;6.00;3.20;;;;;;;18.12;100.00;97290.06;1701792;75;749242;-72
2023/06/30 05:49:21;;;;;;;3.30;2.70;;;;;;;18.22;100.00;97290.38;1710594;75;674093;-73
2023/06/30 05:51:53;;;;;;;6.95;3.85;;;;;;;18.14;100.00;97287.50;1701758;75;759457;-72
2023/06/30 05:54:23;;;;;;;4.20;3.40;;;;;;;18.41;100.00;97282.63;1710339;75;671762;-70
2023/06/30 05:56:56;;;;;;;2.90;2.45;;;;;;;18.47;99.02;97274.19;1701026;75;749431;-72
2023/06/30 05:59:28;;;;;;;5.50;3.40;;;;;;;18.53;100.00;97277.56;1710394;75;685494;-72
2023/06/30 06:01:59;;;;;;;4.80;3.50;;;;;;;18.64;99.09;97280.09;1701024;75;749627;-72
2023/06/30 06:04:29;;;;;;;3.35;2.50;;;;;;;18.77;97.37;97284.84;1710220;75;679223;-71
2023/06/30 06:07:01;;;;;;;3.75;2.60;;;;;;;19.00;99.07;97289.84;1701456;75;759948;-75
2023/06/30 06:09:32;;;;;;;4.10;2.20;;;;;;;19.01;93.99;97288.56;1709930;75;687992;-72
2023/06/30 06:12:05;;;;;;;2.95;2.10;;;;;;;19.01;94.89;97288.56;1701513;75;784364;-73
2023/06/30 06:14:35;;;;;;;6.10;4.00;;;;;;;18.94;94.40;97278.91;1710581;75;669492;-76
2023/06/30 06:17:05;;;;;;;7.35;4.05;;;;;;;19.01;94.11;97286.53;1701647;75;737716;-74
2023/06/30 06:19:36;;;;;;;6.60;3.30;;;;;;;19.19;91.32;97279.28;1710497;75;677866;-73
2023/06/30 06:22:06;;;;;;;4.35;2.95;;;;;;;19.36;92.44;97289.94;1701581;75;759164;-73
2023/06/30 06:24:36;;;;;;;4.30;2.80;;;;;;;19.40;91.09;97284.06;1709586;75;697142;-72
2023/06/30 06:27:10;;;;;;;7.90;3.30;;;;;;;19.38;89.97;97276.25;1701370;75;747363;-74
2023/06/30 06:29:40;;;;;;;5.50;3.50;;;;;;;19.52;90.10;97274.13;1709729;75;684066;-74
2023/06/30 06:32:11;;;;;;;5.10;3.50;;;;;;;19.63;89.60;97275.88;1687892;75;1810351;-71
2023/06/30 06:34:42;;;;;;;5.20;3.10;;;;;;;19.68;89.10;97275.75;1686367;75;2716799;-71
2023/06/30 06:37:12;;;;;;;5.00;3.50;;;;;;;19.76;87.75;97276.50;1701648;75;745704;-71
2023/06/30 06:39:43;;;;;;;4.60;3.20;;;;;;;20.06;88.19;97269.63;1710581;75;680554;-72
2023/06/30 06:42:16;;;;;;;4.85;3.20;;;;;;;20.09;86.37;97262.22;1689548;75;1706910;-73
2023/06/30 06:44:46;;;;;;;5.40;3.60;;;;;;;20.01;85.63;97262.16;1710737;75;672339;-72
2023/06/30 06:48:01;;;;;;;4.05;3.25;;;;;;;20.20;84.15;97259.84;1701342;75;753578;-75
2023/06/30 06:50:31;;;;;;;3.90;3.00;;;;;;;20.22;83.11;97251.66;1700622;75;756774;-71
2023/06/30 06:53:01;;;;;;;4.90;3.00;;;;;;;20.38;84.95;97262.84;1710168;75;680844;-74
2023/06/30 06:55:33;;;;;;;5.45;3.25;;;;;;;20.59;81.17;97249.56;1701400;75;754630;-73
2023/06/30 06:58:06;;;;;;;3.20;2.70;;;;;;;20.67;82.19;97257.91;1710505;75;672269;-74
2023/06/30 07:00:36;;;;;;;5.55;3.80;;;;;;;20.80;83.55;97266.06;1701675;75;733090;-72
2023/06/30 07:03:06;;;;;;;7.40;4.05;;;;;;;20.85;85.89;97264.41;1710679;75;676489;-74
2023/06/30 07:05:37;;;;;;;7.95;4.15;;;;;;;20.75;85.32;97258.66;1700817;75;752970;-74
2023/06/30 07:08:07;;;;;;;4.10;3.20;;;;;;;21.01;85.13;97254.78;1710588;75;670373;-74
2023/06/30 07:10:38;;;;;;;5.60;3.50;;;;;;;21.03;85.03;97252.19;1702023;75;739812;-71
2023/06/30 07:13:11;;;;;;;6.00;4.10;;;;;;;21.28;85.19;97257.91;1710567;75;674262;-74
2023/06/30 07:15:41;;;;;;;8.60;4.15;;;;;;;21.11;87.97;97251.44;1700819;75;748774;-74
2023/06/30 07:18:11;;;;;;;5.95;3.80;;;;;;;21.23;86.51;97242.13;1710559;75;675564;-71
2023/06/30 07:20:42;;;;;;;6.55;3.60;;;;;;;21.55;83.57;97238.03;1701301;75;742349;-72
2023/06/30 07:23:12;;;;;;;7.45;3.60;;;;;;;21.56;82.04;97242.28;1710697;75;664753;-72
2023/06/30 07:25:42;;;;;;;7.40;3.90;;;;;;;21.49;81.67;97235.44;1701466;75;741237;-72
2023/06/30 07:28:15;;;;;;;5.00;3.00;;;;;;;21.68;79.47;97237.78;1710422;75;676265;-72
2023/06/30 07:30:46;;;;;;;5.75;3.75;;;;;;;21.65;75.09;97233.34;1701849;75;751852;-75
2023/06/30 07:33:16;;;;;;;5.40;3.40;;;;;;;21.95;75.09;97233.78;1706659;75;983330;-72
2023/06/30 07:35:49;;;;;;;5.95;3.20;;;;;;;21.94;76.04;97230.28;1701516;75;749215;-72
2023/06/30 07:38:19;;;;;;;5.90;3.35;;;;;;;21.90;72.67;97236.22;1710612;75;677589;-75
2023/06/30 07:40:50;;;;;;;4.65;3.20;;;;;;;22.09;73.02;97230.19;1701460;75;762669;-72
2023/06/30 07:43:23;;;;;;;7.40;3.30;;;;;;;21.99;71.89;97240.47;1710489;75;673850;-73
2023/06/30 07:45:53;;;;;;;4.80;3.25;;;;;;;22.36;70.60;97237.31;1702268;75;760633;-73
2023/06/30 07:48:23;;;;;;;6.45;3.15;;;;;;;22.24;70.45;97226.59;1711273;75;674451;-73
2023/06/30 07:50:53;;;;;;;3.90;3.10;;;;;;;22.42;71.16;97229.50;1702522;75;767819;-72
2023/06/30 07:53:24;;;;;;;3.70;2.90;;;;;;;22.54;74.21;97222.88;1709623;75;733108;-73
2023/06/30 07:55:55;;;;;;;5.65;3.25;;;;;;;22.66;71.67;97225.22;1701470;75;749542;-75
2023/06/30 07:58:28;;;;;;;6.70;4.30;;;;;;;22.55;70.76;97223.63;1707302;75;912665;-74
2023/06/30 08:00:58;;;;;;;5.40;3.60;;;;;;;22.51;70.33;97217.69;1687564;75;1869497;-74
2023/06/30 08:03:29;;;;;;;4.15;2.90;;;;;;;22.90;69.75;97220.94;1710917;75;686750;-73
2023/06/30 08:05:59;;;;;;;2.80;2.30;;;;;;;23.14;69.64;97211.81;1701837;75;746291;-73
2023/06/30 08:08:29;;;;;;;4.30;2.90;;;;;;;23.24;67.99;97220.28;1710830;75;676265;-73
2023/06/30 08:11:00;;;;;;;3.25;2.60;;;;;;;23.21;66.89;97209.50;1701944;75;740419;-76
2023/06/30 08:13:33;;;;;;;5.50;2.80;;;;;;;23.51;67.49;97219.63;1710929;75;675883;-72
2023/06/30 08:16:03;;;;;;;4.45;3.35;;;;;;;23.18;68.45;97216.97;1700702;75;752542;-71
2023/06/30 08:18:33;;;;;;;3.60;2.70;;;;;;;23.37;65.97;97217.16;1710821;75;675022;-74
2023/06/30 08:21:03;;;;;;;2.95;2.40;;;;;;;23.70;67.28;97221.84;1701556;75;740188;-75
2023/06/30 08:23:34;;;;;;;4.40;2.90;;;;;;;23.22;68.07;97214.53;1710779;75;671524;-74
2023/06/30 08:26:04;;;;;;;4.15;2.85;;;;;;;23.64;65.21;97212.97;1701944;75;758011;-75
2023/06/30 08:28:37;;;;;;;4.80;2.70;;;;;;;23.29;66.45;97210.19;1710493;75;674537;-74
2023/06/30 08:31:07;;;;;;;5.50;3.00;;;;;;;24.08;63.73;97215.81;1701811;75;758325;-74
2023/06/30 08:33:38;;;;;;;3.80;2.85;;;;;;;23.85;64.69;97210.50;1710692;75;676563;-74
2023/06/30 08:36:09;;;;;;;5.30;3.25;;;;;;;23.83;64.44;97206.81;1701138;75;762176;-74
2023/06/30 08:38:39;;;;;;;3.15;2.55;;;;;;;24.09;65.07;97199.75;1710540;75;669868;-74
2023/06/30 08:41:10;;;;;;;5.85;2.75;;;;;;;24.06;63.52;97203.72;1701838;75;755860;-74
2023/06/30 08:43:45;;;;;;;5.00;2.50;;;;;;;24.26;63.97;97205.28;1710931;75;671875;-72
2023/06/30 08:46:17;;;;;;;4.30;2.55;;;;;;;24.10;62.88;97204.78;1702015;75;742854;-73
2023/06/30 08:48:49;;;;;;;4.50;2.60;;;;;;;24.66;59.98;97198.59;1710566;75;672699;-75
2023/06/30 08:51:21;;;;;;;4.75;2.85;;;;;;;24.69;59.59;97211.41;1701367;75;739247;-75
2023/06/30 08:53:52;;;;;;;3.50;2.40;;;;;;;24.66;59.56;97204.91;1710599;75;692196;-74
2023/06/30 08:56:25;;;;;;;4.15;2.55;;;;;;;24.85;59.80;97200.69;1702418;75;740125;-74
2023/06/30 08:58:58;;;;;;;4.00;2.60;;;;;;;24.63;59.74;97203.28;1711177;75;676120;-75
2023/06/30 09:01:29;;;;;;;2.55;2.10;;;;;;;24.73;60.30;97202.59;1701334;75;751595;-74
2023/06/30 09:04:00;;;;;;;4.90;2.90;;;;;;;25.29;61.44;97202.56;1711212;75;673750;-72
2023/06/30 09:06:31;;;;;;;3.15;2.60;;;;;;;25.06;61.91;97205.75;1702153;75;743884;-72
2023/06/30 09:09:09;;;;;;;3.55;2.50;;;;;;;25.03;60.93;97202.06;1711332;75;675672;-74
2023/06/30 09:11:41;;;;;;;4.90;2.30;;;;;;;25.63;60.55;97200.81;1702168;75;750971;-73
2023/06/30 09:14:14;;;;;;;4.05;2.60;;;;;;;25.19;59.78;97199.03;1710946;75;679353;-76
2023/06/30 09:16:45;;;;;;;3.35;2.40;;;;;;;25.35;60.89;97196.66;1702356;75;737056;-75
2023/06/30 09:19:17;;;;;;;3.65;2.90;;;;;;;25.14;59.86;97197.97;1710581;75;683982;-75
2023/06/30 09:21:47;;;;;;;4.95;2.65;;;;;;;25.66;60.06;97199.63;1701543;75;750687;-72
2023/06/30 09:24:17;;;;;;;3.40;2.50;;;;;;;25.71;59.50;97202.13;1709258;75;800179;-72
2023/06/30 09:26:49;;;;;;;2.90;2.45;;;;;;;26.07;59.19;97196.94;1701319;75;739507;-75
2023/06/30 09:29:26;;;;;;;4.40;2.60;;;;;;;26.34;58.47;97191.84;1709701;75;682658;-72
2023/06/30 09:32:05;;;;;;;3.50;2.55;;;;;;;26.37;58.50;97184.28;1701036;75;765074;-74
2023/06/30 09:34:35;;;;;;;3.10;2.80;;;;;;;26.07;59.14;97196.94;1701194;75;709918;-71
2023/06/30 09:37:06;;;;;;;3.70;2.30;;;;;;;26.20;58.64;97188.03;1710055;75;676005;-72
2023/06/30 09:39:41;;;;;;;4.10;2.90;;;;;;;26.03;58.71;97185.44;1701835;75;679133;-75
2023/06/30 09:42:19;;;;;;;3.50;2.40;;;;;;;26.14;59.17;97187.59;1710769;75;670336;-76
2023/06/30 09:44:55;;;;;;;3.30;2.65;;;;;;;26.13;60.01;97186.16;1702308;75;678304;-74
2023/06/30 09:47:29;;;;;;;5.00;2.15;;;;;;;26.20;55.26;97182.44;1710709;75;670648;-74
2023/06/30 09:49:59;;;;;;;4.55;2.75;;;;;;;26.08;57.09;97184.38;1700524;75;787007;-73
2023/06/30 09:52:29;;;;;;;3.00;2.00;;;;;;;27.22;56.43;97187.88;1710703;75;670079;-74
2023/06/30 09:55:00;;;;;;;2.65;1.80;;;;;;;26.38;54.99;97182.22;1700841;75;752050;-74
2023/06/30 09:57:31;;;;;;;2.20;1.70;;;;;;;26.84;56.37;97170.63;1710845;75;673375;-76
2023/06/30 10:00:07;;;;;;;3.10;2.10;;;;;;;27.16;52.74;97174.88;1701181;75;741943;-73
2023/06/30 10:02:37;;;;;;;3.00;2.00;;;;;;;27.58;52.72;97173.38;1706022;75;680505;-71
2023/06/30 10:05:08;;;;;;;3.30;1.80;;;;;;;27.42;53.56;97177.97;1710670;75;669654;-73
2023/06/30 10:07:40;;;;;;;2.10;1.70;;;;;;;27.25;53.56;97173.38;1702612;75;669441;-72
2023/06/30 10:10:14;;;;;;;1.95;1.70;;;;;;;27.41;50.92;97165.97;1698809;75;1673238;-75
2023/06/30 10:12:46;;;;;;;2.00;1.60;;;;;;;28.23;51.52;97171.13;1702418;75;677418;-75
2023/06/30 10:15:19;;;;;;;2.70;1.70;;;;;;;28.55;51.79;97170.91;1710462;75;677067;-76
2023/06/30 10:17:50;;;;;;;2.90;2.10;;;;;;;27.90;51.53;97170.44;1702032;75;670790;-75
2023/06/30 10:20:21;;;;;;;2.50;1.80;;;;;;;28.07;51.40;97164.50;1710443;75;675926;-72
2023/06/30 10:22:52;;;;;;;2.80;1.90;;;;;;;27.59;51.73;97163.63;1701920;75;678813;-74
2023/06/30 10:25:24;;;;;;;3.05;2.25;;;;;;;27.86;51.84;97165.31;1710469;75;681385;-74
2023/06/30 10:27:54;;;;;;;1.90;1.40;;;;;;;28.15;53.16;97161.47;1701458;75;697904;-73
2023/06/30 10:30:28;;;;;;;3.65;2.25;;;;;;;27.86;52.40;97164.59;1710611;75;667876;-75
2023/06/30 10:32:58;;;;;;;3.10;1.90;;;;;;;28.02;52.39;97166.34;1702492;75;669267;-75
2023/06/30 10:35:29;;;;;;;2.95;1.90;;;;;;;28.27;52.88;97153.75;1709971;75;675665;-75
2023/06/30 10:38:01;;;;;;;2.55;2.00;;;;;;;28.40;52.58;97152.41;1702134;75;691037;-73
2023/06/30 10:40:32;;;;;;;3.25;2.15;;;;;;;28.08;51.86;97145.53;1710394;75;670383;-73
2023/06/30 10:43:03;;;;;;;3.45;2.10;;;;;;;28.30;52.09;97144.09;1701682;75;759823;-72
2023/06/30 10:45:58;;;;;;;2.60;2.10;;;;;;;28.23;51.23;97151.41;1709888;75;701696;-74
2023/06/30 10:48:31;;;;;;;4.90;2.65;;;;;;;28.24;50.63;97143.72;1701293;75;756209;-73
2023/06/30 10:51:01;;;;;;;2.75;1.80;;;;;;;28.39;51.51;97139.69;1710283;75;671602;-71
2023/06/30 10:53:32;;;;;;;2.35;1.90;;;;;;;28.33;49.96;97147.75;1700192;75;752780;-76
2023/06/30 10:56:05;;;;;;;3.00;2.00;;;;;;;28.51;53.00;97150.97;1710493;75;669902;-75
2023/06/30 10:58:45;;;;;;;3.05;2.15;;;;;;;28.03;54.12;97150.19;1701131;75;761688;-73
2023/06/30 11:01:18;;;;;;;4.05;2.20;;;;;;;28.81;53.80;97137.97;1702288;75;676565;-75
2023/06/30 11:04:15;;;;;;;4.20;2.45;;;;;;;28.52;53.33;97138.38;1710213;75;676531;-76
2023/06/30 11:07:05;;;;;;;3.05;2.35;;;;;;;28.99;54.67;97130.56;1700800;75;746294;-76
2023/06/30 11:10:04;;;;;;;3.50;2.30;;;;;;;28.27;54.46;97138.97;1702008;75;677413;-74
2023/06/30 11:12:56;;;;;;;3.00;2.20;;;;;;;28.73;53.53;97131.84;1702416;75;675429;-73
2023/06/30 11:15:32;;;;;;;3.30;2.70;;;;;;;28.87;54.19;97133.41;1702228;75;673405;-72
2023/06/30 11:18:06;;;;;;;3.50;2.70;;;;;;;29.01;53.23;97130.69;1709822;75;677628;-74
2023/06/30 11:20:37;;;;;;;2.30;1.70;;;;;;;29.90;52.13;97119.44;1702548;75;668986;-77
2023/06/30 11:23:09;;;;;;;2.60;1.90;;;;;;;29.14;53.44;97118.06;1710624;75;673548;-73
2023/06/30 11:25:39;;;;;;;4.30;2.40;;;;;;;29.43;54.27;97109.13;1702280;75;689072;-75
2023/06/30 11:28:11;;;;;;;2.20;2.00;;;;;;;29.37;54.24;97111.59;1710426;75;674713;-74
2023/06/30 11:30:44;;;;;;;3.05;2.10;;;;;;;29.97;53.71;97104.31;1702335;75;675313;-74
2023/06/30 11:33:18;;;;;;;2.55;1.80;;;;;;;30.74;50.42;97101.22;1710152;75;676896;-72
2023/06/30 11:35:59;;;;;;;3.15;1.90;;;;;;;29.87;49.79;97101.69;1700664;75;770452;-77
2023/06/30 11:38:29;;;;;;;3.15;1.85;;;;;;;30.21;50.47;97098.47;1701176;75;693836;-73
2023/06/30 11:41:01;;;;;;;2.60;1.90;;;;;;;30.29;49.72;97094.00;1709695;75;679147;-75
2023/06/30 11:43:36;;;;;;;3.80;1.80;;;;;;;31.01;47.73;97088.44;1701619;75;710578;-73